sensor_id;sensor_type;location;lat;lon;timestamp;temperature;humidity
44305;DHT22;30019;50.576;8.568;2023-04-25T08:17:16;9.50;99.90
44305;DHT22;30019;50.576;8.568;2023-04-25T08:19:41;9.40;99.90
44305;DHT22;30019;50.576;8.568;2023-04-25T08:22:07;9.40;99.90
44305;DHT22;30019;50.576;8.568;2023-04-25T08:24:36;9.40;99.90
44305;DHT22;30019;50.576;8.568;2023-04-25T08:27:02;9.70;99.90
44305;DHT22;30019;50.576;8.568;2023-04-25T08:29:27;9.80;99.90
44305;DHT22;30019;50.576;8.568;2023-04-25T08:31:53;9.60;99.90
44305;DHT22;30019;50.576;8.568;2023-04-25T08:34:19;9.60;99.90
44305;DHT22;30019;50.576;8.568;2023-04-25T08:36:46;9.50;99.90
44305;DHT22;30019;50.576;8.568;2023-04-25T08:39:14;9.70;99.90
44305;DHT22;30019;50.576;8.568;2023-04-25T08:41:40;10.00;99.90
44305;DHT22;30019;50.576;8.568;2023-04-25T08:44:08;9.80;99.90
44305;DHT22;30019;50.576;8.568;2023-04-25T08:46:38;9.70;99.90
44305;DHT22;30019;50.576;8.568;2023-04-25T08:49:07;9.50;99.90
44305;DHT22;30019;50.576;8.568;2023-04-25T08:51:56;9.50;99.90
44305;DHT22;30019;50.576;8.568;2023-04-25T08:55:06;9.30;99.90
44305;DHT22;30019;50.576;8.568;2023-04-25T08:57:52;9.00;99.90
44305;DHT22;30019;50.576;8.568;2023-04-25T09:00:26;8.80;99.90
44305;DHT22;30019;50.576;8.568;2023-04-25T09:02:54;8.70;99.90
44305;DHT22;30019;50.576;8.568;2023-04-25T09:05:26;8.90;99.90
44305;DHT22;30019;50.576;8.568;2023-04-25T09:07:59;9.00;99.90
44305;DHT22;30019;50.576;8.568;2023-04-25T09:10:30;9.10;99.90
44305;DHT22;30019;50.576;8.568;2023-04-25T09:13:23;9.40;99.90
44305;DHT22;30019;50.576;8.568;2023-04-25T09:44:03;9.80;99.90
44305;DHT22;30019;50.576;8.568;2023-04-25T09:46:33;9.90;99.90
44305;DHT22;30019;50.576;8.568;2023-04-25T09:48:58;10.20;99.90
44305;DHT22;30019;50.576;8.568;2023-04-25T09:51:27;10.40;99.90
44305;DHT22;30019;50.576;8.568;2023-04-25T09:53:54;10.30;99.90
44305;DHT22;30019;50.576;8.568;2023-04-25T09:56:19;10.30;99.90
44305;DHT22;30019;50.576;8.568;2023-04-25T09:59:03;10.30;99.90
44305;DHT22;30019;50.576;8.568;2023-04-25T10:01:37;10.40;99.90
44305;DHT22;30019;50.576;8.568;2023-04-25T10:04:05;10.50;99.90
44305;DHT22;30019;50.576;8.568;2023-04-25T10:06:31;10.40;99.90
44305;DHT22;30019;50.576;8.568;2023-04-25T10:09:10;10.40;99.90
44305;DHT22;30019;50.576;8.568;2023-04-25T10:11:37;9.90;99.90
44305;DHT22;30019;50.576;8.568;2023-04-25T10:14:03;9.90;99.90
44305;DHT22;30019;50.576;8.568;2023-04-25T10:16:29;9.90;99.90
44305;DHT22;30019;50.576;8.568;2023-04-25T10:18:55;10.00;99.90
44305;DHT22;30019;50.576;8.568;2023-04-25T10:21:22;10.00;99.90
44305;DHT22;30019;50.576;8.568;2023-04-25T10:23:48;10.00;99.90
44305;DHT22;30019;50.576;8.568;2023-04-25T10:26:14;10.20;99.90
44305;DHT22;30019;50.576;8.568;2023-04-25T10:31:20;11.10;99.90
44305;DHT22;30019;50.576;8.568;2023-04-25T10:33:46;11.50;99.90
44305;DHT22;30019;50.576;8.568;2023-04-25T10:36:17;12.10;99.90
44305;DHT22;30019;50.576;8.568;2023-04-25T10:38:44;11.70;99.90
44305;DHT22;30019;50.576;8.568;2023-04-25T10:41:11;11.00;99.90
44305;DHT22;30019;50.576;8.568;2023-04-25T10:43:40;10.50;99.90
44305;DHT22;30019;50.576;8.568;2023-04-25T10:46:12;10.30;99.90
44305;DHT22;30019;50.576;8.568;2023-04-25T10:48:38;10.00;99.90
44305;DHT22;30019;50.576;8.568;2023-04-25T10:51:12;10.00;99.90
44305;DHT22;30019;50.576;8.568;2023-04-25T10:53:40;10.10;99.90
44305;DHT22;30019;50.576;8.568;2023-04-25T10:56:27;10.10;99.90
44305;DHT22;30019;50.576;8.568;2023-04-25T10:59:05;10.20;99.90
44305;DHT22;30019;50.576;8.568;2023-04-25T11:01:35;10.20;99.90
44305;DHT22;30019;50.576;8.568;2023-04-25T11:04:01;10.30;99.90
44305;DHT22;30019;50.576;8.568;2023-04-25T11:06:29;10.30;99.90
44305;DHT22;30019;50.576;8.568;2023-04-25T11:08:54;10.00;99.90
44305;DHT22;30019;50.576;8.568;2023-04-25T11:11:22;10.10;99.80
44305;DHT22;30019;50.576;8.568;2023-04-25T11:13:49;10.10;99.80
44305;DHT22;30019;50.576;8.568;2023-04-25T11:16:15;10.30;99.90
44305;DHT22;30019;50.576;8.568;2023-04-25T11:18:44;10.20;99.90
44305;DHT22;30019;50.576;8.568;2023-04-25T11:23:47;9.90;99.50
44305;DHT22;30019;50.576;8.568;2023-04-25T11:26:16;9.90;99.00
44305;DHT22;30019;50.576;8.568;2023-04-25T11:28:50;9.90;99.50
44305;DHT22;30019;50.576;8.568;2023-04-25T11:31:25;10.00;99.90
44305;DHT22;30019;50.576;8.568;2023-04-25T11:33:56;9.90;99.30
44305;DHT22;30019;50.576;8.568;2023-04-25T11:36:22;9.90;98.80
44305;DHT22;30019;50.576;8.568;2023-04-25T11:38:51;9.80;99.80
44305;DHT22;30019;50.576;8.568;2023-04-25T11:41:20;9.80;99.90
44305;DHT22;30019;50.576;8.568;2023-04-25T11:43:51;9.90;99.90
44305;DHT22;30019;50.576;8.568;2023-04-25T11:46:22;10.60;99.90
44305;DHT22;30019;50.576;8.568;2023-04-25T11:48:47;10.90;99.90
44305;DHT22;30019;50.576;8.568;2023-04-25T11:51:18;10.80;99.90
44305;DHT22;30019;50.576;8.568;2023-04-25T11:53:44;10.70;98.40
44305;DHT22;30019;50.576;8.568;2023-04-25T11:56:16;10.60;99.20
44305;DHT22;30019;50.576;8.568;2023-04-25T11:58:56;10.60;99.90
44305;DHT22;30019;50.576;8.568;2023-04-25T12:01:28;10.90;98.60
44305;DHT22;30019;50.576;8.568;2023-04-25T12:03:53;12.00;97.80
44305;DHT22;30019;50.576;8.568;2023-04-25T12:06:19;12.80;95.60
44305;DHT22;30019;50.576;8.568;2023-04-25T12:09:04;12.70;97.60
44305;DHT22;30019;50.576;8.568;2023-04-25T12:11:32;12.60;97.70
44305;DHT22;30019;50.576;8.568;2023-04-25T12:14:06;11.20;96.40
44305;DHT22;30019;50.576;8.568;2023-04-25T12:16:44;10.60;97.10
44305;DHT22;30019;50.576;8.568;2023-04-25T12:19:13;10.40;98.20
44305;DHT22;30019;50.576;8.568;2023-04-25T12:21:39;10.30;98.60
44305;DHT22;30019;50.576;8.568;2023-04-25T12:24:09;10.10;97.70
44305;DHT22;30019;50.576;8.568;2023-04-25T12:29:22;10.20;98.50
44305;DHT22;30019;50.576;8.568;2023-04-25T12:31:48;10.40;97.80
44305;DHT22;30019;50.576;8.568;2023-04-25T12:34:13;10.40;97.70
44305;DHT22;30019;50.576;8.568;2023-04-25T12:36:39;10.40;97.70
44305;DHT22;30019;50.576;8.568;2023-04-25T12:39:05;10.50;98.50
44305;DHT22;30019;50.576;8.568;2023-04-25T12:41:32;10.60;97.00
44305;DHT22;30019;50.576;8.568;2023-04-25T12:43:57;10.90;96.70
44305;DHT22;30019;50.576;8.568;2023-04-25T12:46:22;11.60;96.00
44305;DHT22;30019;50.576;8.568;2023-04-25T12:48:48;11.80;95.80
44305;DHT22;30019;50.576;8.568;2023-04-25T12:51:14;12.10;95.10
44305;DHT22;30019;50.576;8.568;2023-04-25T12:53:40;13.00;95.50
44305;DHT22;30019;50.576;8.568;2023-04-25T12:56:09;12.30;94.10
44305;DHT22;30019;50.576;8.568;2023-04-25T12:58:35;12.30;94.00
44305;DHT22;30019;50.576;8.568;2023-04-25T13:01:00;12.10;93.40
44305;DHT22;30019;50.576;8.568;2023-04-25T13:03:26;11.70;94.00
44305;DHT22;30019;50.576;8.568;2023-04-25T13:05:51;11.30;94.50
44305;DHT22;30019;50.576;8.568;2023-04-25T13:08:18;11.10;94.60
44305;DHT22;30019;50.576;8.568;2023-04-25T13:10:43;11.30;94.60
44305;DHT22;30019;50.576;8.568;2023-04-25T13:13:09;11.10;95.40
44305;DHT22;30019;50.576;8.568;2023-04-25T13:15:34;10.80;95.30
44305;DHT22;30019;50.576;8.568;2023-04-25T13:18:00;10.80;95.90
44305;DHT22;30019;50.576;8.568;2023-04-25T13:20:26;10.50;96.80
44305;DHT22;30019;50.576;8.568;2023-04-25T13:22:51;10.50;96.50
44305;DHT22;30019;50.576;8.568;2023-04-25T13:25:17;10.30;95.20
44305;DHT22;30019;50.576;8.568;2023-04-25T13:27:42;10.30;94.70
44305;DHT22;30019;50.576;8.568;2023-04-25T13:30:09;10.20;95.10
44305;DHT22;30019;50.576;8.568;2023-04-25T13:32:35;10.20;95.20
44305;DHT22;30019;50.576;8.568;2023-04-25T13:35:02;10.20;94.30
44305;DHT22;30019;50.576;8.568;2023-04-25T13:37:27;10.30;94.40
44305;DHT22;30019;50.576;8.568;2023-04-25T13:39:54;10.50;95.50
44305;DHT22;30019;50.576;8.568;2023-04-25T13:42:20;10.50;95.80
44305;DHT22;30019;50.576;8.568;2023-04-25T13:44:46;10.60;95.80
44305;DHT22;30019;50.576;8.568;2023-04-25T13:47:11;10.80;96.40
44305;DHT22;30019;50.576;8.568;2023-04-25T13:49:37;10.90;95.50
44305;DHT22;30019;50.576;8.568;2023-04-25T13:52:02;11.00;95.80
44305;DHT22;30019;50.576;8.568;2023-04-25T13:54:28;10.90;95.60
44305;DHT22;30019;50.576;8.568;2023-04-25T13:56:53;11.10;95.60
44305;DHT22;30019;50.576;8.568;2023-04-25T13:59:23;11.10;94.00
44305;DHT22;30019;50.576;8.568;2023-04-25T14:01:49;11.40;93.90
44305;DHT22;30019;50.576;8.568;2023-04-25T14:04:15;11.40;93.80
44305;DHT22;30019;50.576;8.568;2023-04-25T14:06:40;11.60;92.50
44305;DHT22;30019;50.576;8.568;2023-04-25T14:09:06;11.50;93.10
44305;DHT22;30019;50.576;8.568;2023-04-25T14:11:36;11.10;94.20
44305;DHT22;30019;50.576;8.568;2023-04-25T14:14:01;11.10;95.10
44305;DHT22;30019;50.576;8.568;2023-04-25T14:16:27;11.00;94.20
44305;DHT22;30019;50.576;8.568;2023-04-25T14:18:53;10.90;95.50
44305;DHT22;30019;50.576;8.568;2023-04-25T14:21:19;10.80;94.40
44305;DHT22;30019;50.576;8.568;2023-04-25T14:23:46;10.80;96.80
44305;DHT22;30019;50.576;8.568;2023-04-25T14:26:12;10.60;95.70
44305;DHT22;30019;50.576;8.568;2023-04-25T14:28:38;10.30;95.50
44305;DHT22;30019;50.576;8.568;2023-04-25T14:31:03;10.30;95.90
44305;DHT22;30019;50.576;8.568;2023-04-25T14:33:29;10.30;96.50
44305;DHT22;30019;50.576;8.568;2023-04-25T14:35:56;10.40;95.50
44305;DHT22;30019;50.576;8.568;2023-04-25T14:38:21;10.90;95.20
44305;DHT22;30019;50.576;8.568;2023-04-25T14:40:48;11.40;93.00
44305;DHT22;30019;50.576;8.568;2023-04-25T14:43:14;11.70;94.00
44305;DHT22;30019;50.576;8.568;2023-04-25T14:45:40;12.10;91.90
44305;DHT22;30019;50.576;8.568;2023-04-25T14:48:05;12.40;90.70
44305;DHT22;30019;50.576;8.568;2023-04-25T14:50:32;12.50;85.40
44305;DHT22;30019;50.576;8.568;2023-04-25T14:52:57;12.20;85.70
44305;DHT22;30019;50.576;8.568;2023-04-25T14:55:24;12.00;84.60
44305;DHT22;30019;50.576;8.568;2023-04-25T14:57:49;11.50;82.80
44305;DHT22;30019;50.576;8.568;2023-04-25T15:00:15;11.10;84.10
44305;DHT22;30019;50.576;8.568;2023-04-25T15:02:41;11.00;85.70
44305;DHT22;30019;50.576;8.568;2023-04-25T15:05:07;10.90;83.90
44305;DHT22;30019;50.576;8.568;2023-04-25T15:07:35;10.90;83.60
44305;DHT22;30019;50.576;8.568;2023-04-25T15:10:01;10.80;87.40
44305;DHT22;30019;50.576;8.568;2023-04-25T15:12:26;10.80;91.50
44305;DHT22;30019;50.576;8.568;2023-04-25T15:14:53;10.80;89.30
44305;DHT22;30019;50.576;8.568;2023-04-25T15:17:19;10.80;87.20
44305;DHT22;30019;50.576;8.568;2023-04-25T15:19:44;10.70;86.50
44305;DHT22;30019;50.576;8.568;2023-04-25T15:22:10;10.60;89.80
44305;DHT22;30019;50.576;8.568;2023-04-25T15:24:35;10.60;89.60
44305;DHT22;30019;50.576;8.568;2023-04-25T15:27:01;10.70;90.00
44305;DHT22;30019;50.576;8.568;2023-04-25T15:29:27;10.70;90.90
44305;DHT22;30019;50.576;8.568;2023-04-25T15:31:54;10.60;89.60
44305;DHT22;30019;50.576;8.568;2023-04-25T15:34:19;10.50;90.70
44305;DHT22;30019;50.576;8.568;2023-04-25T15:36:44;10.50;90.40
44305;DHT22;30019;50.576;8.568;2023-04-25T15:39:10;11.00;89.90
44305;DHT22;30019;50.576;8.568;2023-04-25T15:41:36;11.50;88.70
44305;DHT22;30019;50.576;8.568;2023-04-25T15:44:01;11.70;88.00
44305;DHT22;30019;50.576;8.568;2023-04-25T15:46:27;11.40;88.90
44305;DHT22;30019;50.576;8.568;2023-04-25T15:48:55;11.10;90.20
44305;DHT22;30019;50.576;8.568;2023-04-25T15:51:21;11.00;90.50
44305;DHT22;30019;50.576;8.568;2023-04-25T15:53:46;11.00;90.70
44305;DHT22;30019;50.576;8.568;2023-04-25T15:56:11;11.10;91.20
44305;DHT22;30019;50.576;8.568;2023-04-25T15:58:37;11.10;91.10
44305;DHT22;30019;50.576;8.568;2023-04-25T16:01:03;11.00;90.30
44305;DHT22;30019;50.576;8.568;2023-04-25T16:03:29;11.00;90.40
44305;DHT22;30019;50.576;8.568;2023-04-25T16:05:54;11.00;88.40
44305;DHT22;30019;50.576;8.568;2023-04-25T16:08:20;10.90;90.10
44305;DHT22;30019;50.576;8.568;2023-04-25T16:10:45;10.90;90.80
44305;DHT22;30019;50.576;8.568;2023-04-25T16:13:11;10.80;90.60
44305;DHT22;30019;50.576;8.568;2023-04-25T16:15:36;10.80;90.10
44305;DHT22;30019;50.576;8.568;2023-04-25T16:18:03;10.70;90.70
44305;DHT22;30019;50.576;8.568;2023-04-25T16:20:28;10.70;91.00
44305;DHT22;30019;50.576;8.568;2023-04-25T16:22:53;10.50;91.40
44305;DHT22;30019;50.576;8.568;2023-04-25T16:25:19;10.40;92.50
44305;DHT22;30019;50.576;8.568;2023-04-25T16:27:46;10.20;93.30
44305;DHT22;30019;50.576;8.568;2023-04-25T16:30:12;10.20;92.90
44305;DHT22;30019;50.576;8.568;2023-04-25T16:32:38;10.20;92.70
44305;DHT22;30019;50.576;8.568;2023-04-25T16:35:04;10.00;93.00
44305;DHT22;30019;50.576;8.568;2023-04-25T16:37:30;9.90;92.60
44305;DHT22;30019;50.576;8.568;2023-04-25T16:39:56;9.90;93.00
44305;DHT22;30019;50.576;8.568;2023-04-25T16:42:21;10.00;92.30
44305;DHT22;30019;50.576;8.568;2023-04-25T16:44:46;10.10;93.10
44305;DHT22;30019;50.576;8.568;2023-04-25T16:47:12;10.20;92.10
44305;DHT22;30019;50.576;8.568;2023-04-25T16:49:37;10.40;92.70
44305;DHT22;30019;50.576;8.568;2023-04-25T16:52:03;10.40;90.70
44305;DHT22;30019;50.576;8.568;2023-04-25T16:54:29;10.50;90.50
44305;DHT22;30019;50.576;8.568;2023-04-25T16:56:55;10.50;86.90
44305;DHT22;30019;50.576;8.568;2023-04-25T16:59:20;10.60;89.80
44305;DHT22;30019;50.576;8.568;2023-04-25T17:01:46;10.40;90.10
44305;DHT22;30019;50.576;8.568;2023-04-25T17:04:11;10.40;90.30
44305;DHT22;30019;50.576;8.568;2023-04-25T17:06:37;10.30;90.40
44305;DHT22;30019;50.576;8.568;2023-04-25T17:09:02;10.10;88.50
44305;DHT22;30019;50.576;8.568;2023-04-25T17:11:28;10.00;88.10
44305;DHT22;30019;50.576;8.568;2023-04-25T17:13:54;9.90;89.90
44305;DHT22;30019;50.576;8.568;2023-04-25T17:16:19;9.70;90.80
44305;DHT22;30019;50.576;8.568;2023-04-25T17:18:47;9.60;90.80
44305;DHT22;30019;50.576;8.568;2023-04-25T17:21:13;9.50;91.30
44305;DHT22;30019;50.576;8.568;2023-04-25T17:23:39;9.30;91.80
44305;DHT22;30019;50.576;8.568;2023-04-25T17:26:12;9.20;92.50
44305;DHT22;30019;50.576;8.568;2023-04-25T17:28:38;9.20;92.10
44305;DHT22;30019;50.576;8.568;2023-04-25T17:31:03;9.20;92.70
44305;DHT22;30019;50.576;8.568;2023-04-25T17:33:29;9.20;93.40
44305;DHT22;30019;50.576;8.568;2023-04-25T17:35:55;9.10;93.90
44305;DHT22;30019;50.576;8.568;2023-04-25T17:38:21;9.00;94.30
44305;DHT22;30019;50.576;8.568;2023-04-25T17:40:46;8.90;94.00
44305;DHT22;30019;50.576;8.568;2023-04-25T17:43:12;9.00;94.20
44305;DHT22;30019;50.576;8.568;2023-04-25T17:45:37;8.90;95.20
44305;DHT22;30019;50.576;8.568;2023-04-25T17:48:03;8.70;96.80
44305;DHT22;30019;50.576;8.568;2023-04-25T17:50:28;8.60;97.70
44305;DHT22;30019;50.576;8.568;2023-04-25T17:52:54;8.60;97.10
44305;DHT22;30019;50.576;8.568;2023-04-25T17:55:19;8.60;97.30
44305;DHT22;30019;50.576;8.568;2023-04-25T17:57:45;8.60;97.50
44305;DHT22;30019;50.576;8.568;2023-04-25T18:00:10;8.70;97.30
44305;DHT22;30019;50.576;8.568;2023-04-25T18:02:37;8.70;97.50
44305;DHT22;30019;50.576;8.568;2023-04-25T18:05:03;8.70;97.40
44305;DHT22;30019;50.576;8.568;2023-04-25T18:07:33;8.70;97.20
44305;DHT22;30019;50.576;8.568;2023-04-25T18:09:59;8.70;96.80
44305;DHT22;30019;50.576;8.568;2023-04-25T18:12:24;8.70;97.30
44305;DHT22;30019;50.576;8.568;2023-04-25T18:14:50;8.60;97.20
44305;DHT22;30019;50.576;8.568;2023-04-25T18:17:15;8.60;98.30
44305;DHT22;30019;50.576;8.568;2023-04-25T18:19:41;8.60;97.30
44305;DHT22;30019;50.576;8.568;2023-04-25T18:22:07;8.50;97.20
44305;DHT22;30019;50.576;8.568;2023-04-25T18:24:32;8.50;96.90
44305;DHT22;30019;50.576;8.568;2023-04-25T18:26:58;8.40;97.50
44305;DHT22;30019;50.576;8.568;2023-04-25T18:29:26;8.30;97.60
44305;DHT22;30019;50.576;8.568;2023-04-25T18:31:52;8.20;98.00
44305;DHT22;30019;50.576;8.568;2023-04-25T18:34:18;8.10;98.10
44305;DHT22;30019;50.576;8.568;2023-04-25T18:36:45;8.00;98.60
44305;DHT22;30019;50.576;8.568;2023-04-25T18:39:11;7.90;98.50
44305;DHT22;30019;50.576;8.568;2023-04-25T18:41:36;7.80;98.80
44305;DHT22;30019;50.576;8.568;2023-04-25T18:44:03;7.70;99.40
44305;DHT22;30019;50.576;8.568;2023-04-25T18:46:32;7.60;99.30
44305;DHT22;30019;50.576;8.568;2023-04-25T18:48:58;7.60;99.60
44305;DHT22;30019;50.576;8.568;2023-04-25T18:51:23;7.50;99.90
44305;DHT22;30019;50.576;8.568;2023-04-25T18:53:51;7.40;99.90
44305;DHT22;30019;50.576;8.568;2023-04-25T18:56:17;7.20;99.90
44305;DHT22;30019;50.576;8.568;2023-04-25T18:58:45;7.20;99.90
44305;DHT22;30019;50.576;8.568;2023-04-25T19:01:11;7.10;99.90
44305;DHT22;30019;50.576;8.568;2023-04-25T19:03:37;7.10;99.90
44305;DHT22;30019;50.576;8.568;2023-04-25T19:06:03;7.00;99.90
44305;DHT22;30019;50.576;8.568;2023-04-25T19:08:29;6.90;99.90
44305;DHT22;30019;50.576;8.568;2023-04-25T19:10:55;6.90;99.90
44305;DHT22;30019;50.576;8.568;2023-04-25T19:13:21;6.80;99.90
44305;DHT22;30019;50.576;8.568;2023-04-25T19:15:46;6.70;99.90
44305;DHT22;30019;50.576;8.568;2023-04-25T19:18:12;6.70;99.90
44305;DHT22;30019;50.576;8.568;2023-04-25T19:20:39;6.70;99.90
44305;DHT22;30019;50.576;8.568;2023-04-25T19:23:04;6.70;99.90
44305;DHT22;30019;50.576;8.568;2023-04-25T19:25:29;6.60;99.90
44305;DHT22;30019;50.576;8.568;2023-04-25T19:27:55;6.60;99.90
44305;DHT22;30019;50.576;8.568;2023-04-25T19:30:21;6.50;99.90
44305;DHT22;30019;50.576;8.568;2023-04-25T19:32:47;6.50;99.90
44305;DHT22;30019;50.576;8.568;2023-04-25T19:35:13;6.50;99.90
44305;DHT22;30019;50.576;8.568;2023-04-25T19:37:38;6.50;99.90
44305;DHT22;30019;50.576;8.568;2023-04-25T19:40:10;6.50;99.90
44305;DHT22;30019;50.576;8.568;2023-04-25T19:42:36;6.50;99.90
44305;DHT22;30019;50.576;8.568;2023-04-25T19:45:01;6.50;99.90
44305;DHT22;30019;50.576;8.568;2023-04-25T19:47:27;6.50;99.90
44305;DHT22;30019;50.576;8.568;2023-04-25T19:49:52;6.50;99.90
44305;DHT22;30019;50.576;8.568;2023-04-25T19:52:18;6.50;99.90
44305;DHT22;30019;50.576;8.568;2023-04-25T19:54:44;6.50;99.90
44305;DHT22;30019;50.576;8.568;2023-04-25T19:57:10;6.60;99.90
44305;DHT22;30019;50.576;8.568;2023-04-25T19:59:36;6.50;99.90
44305;DHT22;30019;50.576;8.568;2023-04-25T20:02:01;6.60;99.90
44305;DHT22;30019;50.576;8.568;2023-04-25T20:04:29;6.50;99.90
44305;DHT22;30019;50.576;8.568;2023-04-25T20:06:54;6.50;99.90
44305;DHT22;30019;50.576;8.568;2023-04-25T20:09:20;6.40;99.90
44305;DHT22;30019;50.576;8.568;2023-04-25T20:11:46;6.40;99.90
44305;DHT22;30019;50.576;8.568;2023-04-25T20:14:11;6.40;99.90
44305;DHT22;30019;50.576;8.568;2023-04-25T20:16:37;6.40;99.90
44305;DHT22;30019;50.576;8.568;2023-04-25T20:19:03;6.40;99.90
44305;DHT22;30019;50.576;8.568;2023-04-25T20:21:29;6.30;99.90
44305;DHT22;30019;50.576;8.568;2023-04-25T20:23:57;6.40;99.90
44305;DHT22;30019;50.576;8.568;2023-04-25T20:26:22;6.40;99.90
44305;DHT22;30019;50.576;8.568;2023-04-25T20:28:50;6.30;99.90
44305;DHT22;30019;50.576;8.568;2023-04-25T20:31:15;6.30;99.90
44305;DHT22;30019;50.576;8.568;2023-04-25T20:33:41;6.30;99.90
44305;DHT22;30019;50.576;8.568;2023-04-25T20:36:07;6.20;99.90
44305;DHT22;30019;50.576;8.568;2023-04-25T20:38:34;6.20;99.90
44305;DHT22;30019;50.576;8.568;2023-04-25T20:40:59;6.20;99.90
44305;DHT22;30019;50.576;8.568;2023-04-25T20:43:25;6.10;99.90
44305;DHT22;30019;50.576;8.568;2023-04-25T20:45:51;6.10;99.90
44305;DHT22;30019;50.576;8.568;2023-04-25T20:48:17;6.10;99.90
44305;DHT22;30019;50.576;8.568;2023-04-25T20:50:43;6.00;99.90
44305;DHT22;30019;50.576;8.568;2023-04-25T20:53:08;6.00;99.90
44305;DHT22;30019;50.576;8.568;2023-04-25T20:55:35;6.00;99.90
44305;DHT22;30019;50.576;8.568;2023-04-25T20:58:00;6.00;99.90
44305;DHT22;30019;50.576;8.568;2023-04-25T21:00:27;6.00;99.90
44305;DHT22;30019;50.576;8.568;2023-04-25T21:02:54;5.90;99.90
44305;DHT22;30019;50.576;8.568;2023-04-25T21:05:20;5.90;99.90
44305;DHT22;30019;50.576;8.568;2023-04-25T21:07:47;5.90;99.90
44305;DHT22;30019;50.576;8.568;2023-04-25T21:10:12;5.80;99.90
44305;DHT22;30019;50.576;8.568;2023-04-25T21:12:39;5.70;99.90
44305;DHT22;30019;50.576;8.568;2023-04-25T21:15:05;5.70;99.90
44305;DHT22;30019;50.576;8.568;2023-04-25T21:17:31;5.60;99.90
44305;DHT22;30019;50.576;8.568;2023-04-25T21:19:56;5.50;99.90
44305;DHT22;30019;50.576;8.568;2023-04-25T21:22:22;5.40;99.90
44305;DHT22;30019;50.576;8.568;2023-04-25T21:24:47;5.30;99.90
44305;DHT22;30019;50.576;8.568;2023-04-25T21:27:15;5.20;99.90
44305;DHT22;30019;50.576;8.568;2023-04-25T21:29:42;5.20;99.90
44305;DHT22;30019;50.576;8.568;2023-04-25T21:32:08;5.00;99.90
44305;DHT22;30019;50.576;8.568;2023-04-25T21:34:33;4.90;99.90
44305;DHT22;30019;50.576;8.568;2023-04-25T21:36:59;4.80;99.90
44305;DHT22;30019;50.576;8.568;2023-04-25T21:39:24;4.80;99.90
44305;DHT22;30019;50.576;8.568;2023-04-25T21:41:50;4.70;99.90
44305;DHT22;30019;50.576;8.568;2023-04-25T21:44:15;4.70;99.90
44305;DHT22;30019;50.576;8.568;2023-04-25T21:46:41;4.60;99.90
44305;DHT22;30019;50.576;8.568;2023-04-25T21:49:07;4.60;99.90
44305;DHT22;30019;50.576;8.568;2023-04-25T21:51:32;4.60;99.90
44305;DHT22;30019;50.576;8.568;2023-04-25T21:53:58;4.60;99.90
44305;DHT22;30019;50.576;8.568;2023-04-25T21:56:25;4.50;99.90
44305;DHT22;30019;50.576;8.568;2023-04-25T21:58:50;4.50;99.90
44305;DHT22;30019;50.576;8.568;2023-04-25T22:01:16;4.40;99.90
44305;DHT22;30019;50.576;8.568;2023-04-25T22:03:42;4.40;99.90
44305;DHT22;30019;50.576;8.568;2023-04-25T22:06:07;4.40;99.90
44305;DHT22;30019;50.576;8.568;2023-04-25T22:08:32;4.30;99.90
44305;DHT22;30019;50.576;8.568;2023-04-25T22:10:58;4.10;99.90
44305;DHT22;30019;50.576;8.568;2023-04-25T22:13:23;4.10;99.90
44305;DHT22;30019;50.576;8.568;2023-04-25T22:15:50;4.10;99.90
44305;DHT22;30019;50.576;8.568;2023-04-25T22:18:16;4.00;99.90
44305;DHT22;30019;50.576;8.568;2023-04-25T22:20:42;4.00;99.90
44305;DHT22;30019;50.576;8.568;2023-04-25T22:23:08;4.00;99.90
44305;DHT22;30019;50.576;8.568;2023-04-25T22:25:33;3.90;99.90
44305;DHT22;30019;50.576;8.568;2023-04-25T22:27:59;3.80;99.90
44305;DHT22;30019;50.576;8.568;2023-04-25T22:30:25;3.80;99.90
44305;DHT22;30019;50.576;8.568;2023-04-25T22:32:50;3.80;99.90
44305;DHT22;30019;50.576;8.568;2023-04-25T22:35:16;3.70;99.90
44305;DHT22;30019;50.576;8.568;2023-04-25T22:37:41;3.70;99.90
44305;DHT22;30019;50.576;8.568;2023-04-25T22:40:07;3.70;99.90
44305;DHT22;30019;50.576;8.568;2023-04-25T22:42:37;3.70;99.90
44305;DHT22;30019;50.576;8.568;2023-04-25T22:45:03;3.70;99.90
44305;DHT22;30019;50.576;8.568;2023-04-25T22:47:30;3.60;99.90
44305;DHT22;30019;50.576;8.568;2023-04-25T22:49:56;3.60;99.90
44305;DHT22;30019;50.576;8.568;2023-04-25T22:52:22;3.60;99.90
44305;DHT22;30019;50.576;8.568;2023-04-25T22:54:47;3.50;99.90
44305;DHT22;30019;50.576;8.568;2023-04-25T22:57:13;3.40;99.90
44305;DHT22;30019;50.576;8.568;2023-04-25T22:59:38;3.40;99.90
44305;DHT22;30019;50.576;8.568;2023-04-25T23:02:04;3.30;99.90
44305;DHT22;30019;50.576;8.568;2023-04-25T23:04:29;3.30;99.90
44305;DHT22;30019;50.576;8.568;2023-04-25T23:06:55;3.30;99.90
44305;DHT22;30019;50.576;8.568;2023-04-25T23:09:20;3.30;99.90
44305;DHT22;30019;50.576;8.568;2023-04-25T23:11:46;3.20;99.90
44305;DHT22;30019;50.576;8.568;2023-04-25T23:14:12;3.20;99.90
44305;DHT22;30019;50.576;8.568;2023-04-25T23:16:38;3.10;99.90
44305;DHT22;30019;50.576;8.568;2023-04-25T23:19:04;3.00;99.90
44305;DHT22;30019;50.576;8.568;2023-04-25T23:21:30;3.00;99.90
44305;DHT22;30019;50.576;8.568;2023-04-25T23:23:55;2.90;99.90
44305;DHT22;30019;50.576;8.568;2023-04-25T23:26:21;2.90;99.90
44305;DHT22;30019;50.576;8.568;2023-04-25T23:28:46;2.80;99.90
44305;DHT22;30019;50.576;8.568;2023-04-25T23:31:12;2.80;99.90
44305;DHT22;30019;50.576;8.568;2023-04-25T23:33:37;2.70;99.90
44305;DHT22;30019;50.576;8.568;2023-04-25T23:36:03;2.80;99.90
44305;DHT22;30019;50.576;8.568;2023-04-25T23:38:29;2.70;99.90
44305;DHT22;30019;50.576;8.568;2023-04-25T23:40:55;2.70;99.90
44305;DHT22;30019;50.576;8.568;2023-04-25T23:43:20;2.80;99.90
44305;DHT22;30019;50.576;8.568;2023-04-25T23:45:46;2.80;99.90
44305;DHT22;30019;50.576;8.568;2023-04-25T23:48:11;2.80;99.90
44305;DHT22;30019;50.576;8.568;2023-04-25T23:50:37;2.80;99.90
44305;DHT22;30019;50.576;8.568;2023-04-25T23:53:02;2.80;99.90
44305;DHT22;30019;50.576;8.568;2023-04-25T23:55:28;2.80;99.90
44305;DHT22;30019;50.576;8.568;2023-04-25T23:57:54;2.70;99.90
